createdAt,value
2023-03-02T00:01:51.782Z,5.95
2023-03-02T00:04:26.615Z,6.05
2023-03-02T00:06:59.760Z,6.22
2023-03-02T00:09:29.092Z,6.80
2023-03-02T00:11:58.190Z,5.80
2023-03-02T00:14:26.577Z,6.20
2023-03-02T00:16:54.915Z,5.82
2023-03-02T00:19:23.133Z,5.97
2023-03-02T00:21:51.374Z,6.07
2023-03-02T00:24:21.008Z,5.78
2023-03-02T00:26:49.290Z,6.65
2023-03-02T00:29:17.509Z,6.15
2023-03-02T00:31:45.795Z,6.25
2023-03-02T00:34:14.110Z,6.43
2023-03-02T00:36:42.710Z,5.80
2023-03-02T00:39:11.627Z,6.45
2023-03-02T00:41:41.285Z,6.65
2023-03-02T00:44:09.522Z,7.13
2023-03-02T00:46:37.843Z,6.35
2023-03-02T00:49:06.239Z,6.25
2023-03-02T00:51:34.836Z,6.22
2023-03-02T00:54:03.183Z,6.65
2023-03-02T00:56:31.775Z,6.78
2023-03-02T00:59:06.715Z,6.57
2023-03-02T01:01:35.031Z,7.03
2023-03-02T01:04:03.295Z,6.43
2023-03-02T01:06:33.404Z,6.95
2023-03-02T01:09:01.842Z,6.87
2023-03-02T01:11:30.093Z,6.43
2023-03-02T01:13:58.419Z,7.13
2023-03-02T01:16:28.090Z,6.60
2023-03-02T01:18:56.341Z,7.45
2023-03-02T01:21:24.597Z,6.80
2023-03-02T01:23:52.866Z,7.00
2023-03-02T01:26:21.109Z,6.93
2023-03-02T01:28:50.103Z,7.10
2023-03-02T01:31:19.258Z,6.65
2023-03-02T01:33:49.052Z,6.78
2023-03-02T01:36:17.838Z,7.20
2023-03-02T01:38:46.591Z,7.38
2023-03-02T01:41:15.409Z,6.72
2023-03-02T01:43:43.890Z,7.25
2023-03-02T01:46:16.034Z,6.57
2023-03-02T01:48:50.386Z,6.75
2023-03-02T01:51:24.734Z,7.28
2023-03-02T01:53:57.168Z,6.45
2023-03-02T01:56:32.424Z,6.93
2023-03-02T01:59:05.003Z,7.40
2023-03-02T02:01:36.067Z,7.18
2023-03-02T02:04:06.496Z,7.18
2023-03-02T02:06:40.295Z,6.95
2023-03-02T02:09:12.314Z,7.63
2023-03-02T02:11:40.763Z,6.57
2023-03-02T02:14:09.016Z,6.80
2023-03-02T02:16:39.407Z,7.10
2023-03-02T02:19:19.634Z,7.60
2023-03-02T02:21:47.924Z,7.33
2023-03-02T02:24:23.251Z,7.60
2023-03-02T02:26:55.686Z,7.70
2023-03-02T02:29:28.199Z,7.68
2023-03-02T02:32:00.658Z,7.32
2023-03-02T02:34:33.584Z,6.80
2023-03-02T02:37:08.009Z,7.63
2023-03-02T02:39:43.245Z,6.85
2023-03-02T02:42:17.597Z,7.63
2023-03-02T02:44:46.042Z,7.15
2023-03-02T02:47:19.428Z,6.78
2023-03-02T02:49:50.266Z,6.95
2023-03-02T02:52:21.734Z,7.15
2023-03-02T02:54:53.506Z,7.20
2023-03-02T02:57:27.063Z,7.50
2023-03-02T02:59:57.471Z,7.60
2023-03-02T03:02:28.622Z,7.10
2023-03-02T03:07:33.374Z,7.47
2023-03-02T03:10:11.626Z,7.57
2023-03-02T03:12:41.813Z,7.50
2023-03-02T03:15:11.696Z,7.77
2023-03-02T03:17:40.889Z,7.35
2023-03-02T03:20:11.345Z,6.45
2023-03-02T03:22:40.749Z,7.13
2023-03-02T03:25:10.012Z,6.65
2023-03-02T03:27:38.361Z,7.45
2023-03-02T03:30:09.787Z,7.28
2023-03-02T03:32:38.390Z,8.15
2023-03-02T03:35:11.563Z,6.90
2023-03-02T03:37:41.767Z,7.30
2023-03-02T03:40:12.457Z,7.00
2023-03-02T03:42:40.922Z,7.03
2023-03-02T03:45:11.335Z,7.28
2023-03-02T03:47:39.799Z,7.43
2023-03-02T03:50:08.685Z,7.25
2023-03-02T03:52:36.981Z,7.15
2023-03-02T03:55:06.646Z,6.93
2023-03-02T03:57:35.030Z,6.88
2023-03-02T04:00:06.069Z,7.45
2023-03-02T04:05:06.476Z,7.85
2023-03-02T04:07:35.372Z,7.07
2023-03-02T04:10:04.466Z,6.95
2023-03-02T04:12:33.687Z,7.18
2023-03-02T04:15:02.789Z,6.93
2023-03-02T04:17:31.143Z,7.15
2023-03-02T04:20:01.849Z,7.07
2023-03-02T04:22:30.196Z,7.55
2023-03-02T04:24:58.992Z,7.10
2023-03-02T04:27:27.282Z,6.93
2023-03-02T04:29:55.551Z,6.88
2023-03-02T04:32:23.916Z,6.90
2023-03-02T04:34:52.286Z,7.63
2023-03-02T04:37:22.115Z,7.32
2023-03-02T04:39:52.785Z,7.03
2023-03-02T04:42:22.016Z,7.15
2023-03-02T04:44:50.961Z,6.60
2023-03-02T04:47:19.273Z,7.45
2023-03-02T04:49:49.419Z,6.90
2023-03-02T04:52:17.770Z,7.32
2023-03-02T04:54:47.398Z,7.22
2023-03-02T04:57:15.804Z,6.95
2023-03-02T04:59:44.099Z,7.00
2023-03-02T05:02:12.749Z,7.20
2023-03-02T05:04:42.402Z,7.05
2023-03-02T05:07:10.847Z,6.63
2023-03-02T05:09:39.110Z,7.18
2023-03-02T05:12:09.673Z,6.93
2023-03-02T05:14:38.015Z,7.22
2023-03-02T05:17:06.305Z,6.88
2023-03-02T05:19:34.549Z,7.10
2023-03-02T05:22:03.068Z,6.97
2023-03-02T05:24:31.418Z,34.58
2023-03-02T05:26:59.713Z,20.27
2023-03-02T05:29:29.580Z,8.43
2023-03-02T05:31:57.939Z,7.38
2023-03-02T05:34:26.225Z,11.15
2023-03-02T05:36:54.523Z,7.68
2023-03-02T05:39:22.798Z,7.32
2023-03-02T05:41:51.055Z,6.93
2023-03-02T05:44:19.316Z,7.53
2023-03-02T05:46:49.585Z,6.85
2023-03-02T05:49:18.013Z,6.70
2023-03-02T05:51:46.320Z,6.50
2023-03-02T05:54:15.904Z,6.97
2023-03-02T05:56:44.190Z,6.97
2023-03-02T05:59:12.998Z,7.00
2023-03-02T06:01:41.512Z,6.80
2023-03-02T06:04:11.154Z,7.00
2023-03-02T06:06:40.041Z,6.70
2023-03-02T06:09:08.578Z,6.93
2023-03-02T06:11:36.965Z,6.72
2023-03-02T06:14:05.313Z,7.15
2023-03-02T06:16:34.118Z,7.20
2023-03-02T06:19:02.717Z,7.75
2023-03-02T06:21:32.391Z,7.03
2023-03-02T06:24:00.729Z,7.25
2023-03-02T06:26:29.052Z,7.05
2023-03-02T06:28:59.529Z,6.90
2023-03-02T06:31:28.003Z,6.97
2023-03-02T06:33:56.374Z,6.70
2023-03-02T06:36:25.077Z,7.65
2023-03-02T06:38:55.045Z,7.15
2023-03-02T06:41:23.368Z,7.10
2023-03-02T06:43:51.720Z,7.63
2023-03-02T06:46:20.156Z,6.63
2023-03-02T06:48:48.578Z,7.00
2023-03-02T06:51:17.881Z,7.03
2023-03-02T06:53:46.245Z,7.03
2023-03-02T06:56:16.048Z,7.18
2023-03-02T06:58:44.441Z,6.85
2023-03-02T07:01:12.829Z,6.55
2023-03-02T07:03:41.177Z,6.85
2023-03-02T07:06:09.780Z,6.68
2023-03-02T07:08:38.066Z,6.32
2023-03-02T07:11:08.309Z,6.15
2023-03-02T07:13:39.037Z,6.47
2023-03-02T07:16:09.698Z,6.20
2023-03-02T07:18:38.725Z,6.43
2023-03-02T07:21:07.585Z,6.57
2023-03-02T07:23:36.196Z,5.72
2023-03-02T07:26:08.371Z,6.18
2023-03-02T07:28:40.325Z,6.15
2023-03-02T07:31:09.812Z,6.20
2023-03-02T07:33:39.733Z,5.65
2023-03-02T07:36:09.716Z,5.57
2023-03-02T07:38:38.760Z,5.82
2023-03-02T07:41:11.127Z,5.50
2023-03-02T07:43:40.835Z,5.97
2023-03-02T07:46:09.250Z,5.55
2023-03-02T07:48:37.675Z,6.35
2023-03-02T07:51:08.370Z,5.93
2023-03-02T07:53:37.083Z,6.30
2023-03-02T07:56:10.454Z,6.15
2023-03-02T07:58:40.230Z,5.60
2023-03-02T08:01:08.943Z,6.22
2023-03-02T08:03:37.458Z,5.85
2023-03-02T08:06:07.912Z,5.88
2023-03-02T08:08:37.273Z,6.15
2023-03-02T08:11:07.138Z,5.50
2023-03-02T08:13:35.644Z,5.28
2023-03-02T08:16:08.748Z,5.38
2023-03-02T08:18:38.162Z,5.10
2023-03-02T08:21:12.648Z,5.38
2023-03-02T08:23:41.050Z,5.30
2023-03-02T08:26:11.727Z,5.20
2023-03-02T08:28:42.043Z,4.60
2023-03-02T08:31:12.842Z,4.50
2023-03-02T08:33:41.519Z,4.97
2023-03-02T08:36:14.557Z,4.85
2023-03-02T08:38:43.286Z,4.70
2023-03-02T08:41:14.354Z,4.53
2023-03-02T08:46:14.945Z,4.18
2023-03-02T08:48:43.304Z,5.05
2023-03-02T08:51:15.652Z,4.10
2023-03-02T08:53:46.611Z,4.72
2023-03-02T08:56:20.854Z,4.35
2023-03-02T08:58:49.856Z,5.18
2023-03-02T09:01:23.066Z,4.60
2023-03-02T09:03:52.266Z,4.22
2023-03-02T09:06:20.847Z,5.00
2023-03-02T09:08:49.674Z,4.68
2023-03-02T09:11:18.191Z,4.25
2023-03-02T09:13:46.510Z,4.75
2023-03-02T09:16:15.624Z,4.35
2023-03-02T09:18:45.353Z,4.40
2023-03-02T09:21:13.674Z,4.15
2023-03-02T09:23:41.984Z,4.18
2023-03-02T09:26:11.044Z,4.78
2023-03-02T09:28:39.884Z,4.78
2023-03-02T09:31:09.823Z,5.22
2023-03-02T09:33:38.818Z,4.28
2023-03-02T09:36:11.578Z,4.50
2023-03-02T09:38:41.528Z,4.50
2023-03-02T09:41:39.941Z,4.32
2023-03-02T09:44:32.708Z,4.20
2023-03-02T09:47:04.771Z,3.78
2023-03-02T09:49:50.905Z,4.47
2023-03-02T09:52:32.390Z,4.45
2023-03-02T09:55:09.767Z,4.15
2023-03-02T09:57:40.897Z,3.90
2023-03-02T10:00:19.580Z,4.13
2023-03-02T10:02:54.406Z,4.20
2023-03-02T10:05:27.326Z,3.97
2023-03-02T10:07:59.295Z,4.20
2023-03-02T10:10:35.016Z,4.28
2023-03-02T10:13:17.094Z,4.47
2023-03-02T10:15:58.501Z,4.32
2023-03-02T10:18:35.632Z,4.45
2023-03-02T10:21:10.796Z,4.63
2023-03-02T10:23:46.764Z,4.05
2023-03-02T10:26:37.630Z,4.15
2023-03-02T10:29:34.578Z,4.38
2023-03-02T10:32:16.049Z,3.90
2023-03-02T10:34:44.375Z,4.47
2023-03-02T10:37:17.004Z,4.07
2023-03-02T10:39:46.840Z,4.03
2023-03-02T10:42:21.416Z,3.75
2023-03-02T10:44:54.083Z,3.78
2023-03-02T10:47:25.912Z,3.72
2023-03-02T10:49:56.025Z,4.15
2023-03-02T10:52:26.821Z,3.72
2023-03-02T10:55:06.257Z,4.03
2023-03-02T10:57:40.055Z,4.22
2023-03-02T11:00:19.021Z,4.20
2023-03-02T11:02:52.654Z,4.18
2023-03-02T11:05:32.103Z,3.67
2023-03-02T11:08:02.669Z,4.10
2023-03-02T11:10:36.655Z,3.78
2023-03-02T11:13:18.861Z,4.40
2023-03-02T11:15:50.190Z,4.43
2023-03-02T11:18:27.820Z,3.55
2023-03-02T11:21:03.299Z,4.03
2023-03-02T11:23:53.582Z,3.75
2023-03-02T11:26:27.281Z,4.10
2023-03-02T11:29:02.071Z,3.60
2023-03-02T11:31:38.183Z,3.63
2023-03-02T11:34:41.908Z,4.10
2023-03-02T11:37:21.376Z,3.95
2023-03-02T11:40:06.575Z,3.47
2023-03-02T11:42:40.312Z,4.03
2023-03-02T11:45:21.649Z,4.70
2023-03-02T11:48:02.456Z,4.28
2023-03-02T11:50:32.293Z,4.15
2023-03-02T11:53:05.376Z,4.20
2023-03-02T11:55:37.569Z,3.58
2023-03-02T11:58:08.425Z,3.92
2023-03-02T12:00:39.746Z,3.70
2023-03-02T12:03:21.569Z,3.85
2023-03-02T12:06:06.710Z,3.47
2023-03-02T12:08:41.149Z,3.88
2023-03-02T12:11:30.978Z,3.72
2023-03-02T12:14:03.889Z,5.15
2023-03-02T12:16:43.313Z,3.85
2023-03-02T12:19:27.575Z,3.55
2023-03-02T12:22:01.144Z,4.15
2023-03-02T12:24:32.383Z,3.63
2023-03-02T12:27:06.641Z,3.53
2023-03-02T12:29:45.126Z,3.67
2023-03-02T12:32:24.154Z,3.65
2023-03-02T12:34:58.909Z,3.83
2023-03-02T12:37:31.253Z,3.75
2023-03-02T12:40:34.744Z,3.55
2023-03-02T12:43:32.329Z,3.80
2023-03-02T12:46:29.309Z,3.70
2023-03-02T12:49:25.932Z,3.75
2023-03-02T12:51:57.566Z,3.83
2023-03-02T12:54:28.855Z,3.35
2023-03-02T12:57:13.837Z,4.07
2023-03-02T12:59:42.734Z,4.03
2023-03-02T13:02:20.143Z,3.85
2023-03-02T13:04:55.646Z,3.70
2023-03-02T13:07:28.199Z,3.60
2023-03-02T13:09:59.999Z,4.40
2023-03-02T13:12:29.907Z,3.95
2023-03-02T13:15:00.067Z,4.18
2023-03-02T13:17:32.579Z,3.90
2023-03-02T13:20:03.015Z,4.15
2023-03-02T13:22:31.821Z,4.13
2023-03-02T13:25:02.301Z,4.20
2023-03-02T13:27:31.661Z,3.95
2023-03-02T13:30:12.128Z,3.53
2023-03-02T13:32:44.021Z,3.92
2023-03-02T13:35:29.610Z,4.55
2023-03-02T13:38:02.539Z,3.38
2023-03-02T13:40:49.636Z,3.78
2023-03-02T13:43:32.516Z,3.75
2023-03-02T13:46:02.889Z,4.38
2023-03-02T13:48:33.045Z,2.75
2023-03-02T13:51:04.486Z,3.60
2023-03-02T13:53:38.088Z,3.92
2023-03-02T13:56:06.937Z,3.65
2023-03-02T13:58:39.342Z,3.47
2023-03-02T14:01:08.415Z,3.60
2023-03-02T14:03:38.078Z,3.72
2023-03-02T14:06:07.459Z,3.83
2023-03-02T14:08:35.757Z,3.00
2023-03-02T14:11:06.856Z,3.63
2023-03-02T14:16:08.097Z,3.33
2023-03-02T14:18:41.656Z,3.42
2023-03-02T14:21:15.675Z,3.67
2023-03-02T14:23:44.175Z,3.35
2023-03-02T14:26:33.753Z,3.30
2023-03-02T14:29:06.358Z,3.58
2023-03-02T14:31:35.611Z,3.47
2023-03-02T14:34:05.480Z,3.63
2023-03-02T14:36:35.733Z,3.92
2023-03-02T14:39:07.215Z,3.47
2023-03-02T14:41:52.628Z,3.33
2023-03-02T14:44:22.157Z,3.67
2023-03-02T14:46:50.710Z,3.35
2023-03-02T14:49:20.383Z,3.75
2023-03-02T14:51:59.041Z,3.60
2023-03-02T14:54:27.928Z,3.22
2023-03-02T14:56:56.237Z,3.15
2023-03-02T14:59:24.529Z,3.97
2023-03-02T15:01:52.814Z,3.70
2023-03-02T15:04:22.507Z,3.42
2023-03-02T15:06:50.781Z,3.58
2023-03-02T15:09:19.052Z,3.88
2023-03-02T15:11:47.414Z,3.70
2023-03-02T15:14:15.707Z,4.03
2023-03-02T15:16:44.011Z,3.53
2023-03-02T15:19:12.339Z,3.88
2023-03-02T15:21:44.807Z,3.63
2023-03-02T15:24:13.826Z,3.28
2023-03-02T15:26:42.312Z,3.35
2023-03-02T15:29:10.980Z,3.47
2023-03-02T15:31:39.260Z,3.60
2023-03-02T15:34:07.576Z,3.58
2023-03-02T15:36:36.080Z,3.25
2023-03-02T15:39:07.852Z,3.38
2023-03-02T15:41:36.295Z,3.45
2023-03-02T15:44:04.761Z,3.20
2023-03-02T15:46:33.114Z,3.55
2023-03-02T15:49:01.442Z,3.42
2023-03-02T15:51:29.745Z,3.53
2023-03-02T15:53:59.301Z,3.83
2023-03-02T15:56:38.874Z,3.92
2023-03-02T15:59:10.840Z,3.58
2023-03-02T16:01:39.085Z,3.95
2023-03-02T16:04:07.362Z,4.03
2023-03-02T16:06:35.675Z,3.65
2023-03-02T16:09:04.186Z,4.07
2023-03-02T16:11:33.946Z,3.90
2023-03-02T16:14:02.282Z,3.80
2023-03-02T16:16:30.778Z,3.70
2023-03-02T16:19:01.198Z,4.72
2023-03-02T16:21:30.676Z,4.10
2023-03-02T16:24:03.864Z,4.20
2023-03-02T16:26:35.578Z,4.53
2023-03-02T16:29:04.756Z,4.03
2023-03-02T16:31:37.463Z,4.32
2023-03-02T16:34:08.844Z,4.07
2023-03-02T16:36:38.483Z,4.30
2023-03-02T16:39:09.028Z,4.70
2023-03-02T16:41:40.584Z,4.50
2023-03-02T16:44:09.611Z,4.35
2023-03-02T16:46:41.858Z,4.53
2023-03-02T16:49:10.909Z,5.32
2023-03-02T16:51:40.490Z,4.50
2023-03-02T16:54:09.325Z,4.43
2023-03-02T16:56:39.736Z,4.50
2023-03-02T16:59:08.032Z,4.68
2023-03-02T17:01:36.416Z,5.30
2023-03-02T17:04:06.036Z,4.70
2023-03-02T17:06:34.699Z,4.63
2023-03-02T17:09:03.017Z,4.75
2023-03-02T17:11:31.877Z,4.68
2023-03-02T17:14:01.501Z,4.90
2023-03-02T17:16:29.964Z,5.40
2023-03-02T17:18:58.229Z,5.47
2023-03-02T17:21:26.542Z,4.68
2023-03-02T17:23:54.856Z,4.88
2023-03-02T17:26:23.131Z,5.60
2023-03-02T17:28:51.476Z,5.05
2023-03-02T17:31:21.217Z,5.22
2023-03-02T17:33:49.544Z,5.30
2023-03-02T17:36:17.964Z,5.45
2023-03-02T17:38:46.248Z,5.57
2023-03-02T17:41:14.873Z,4.70
2023-03-02T17:43:43.915Z,4.68
2023-03-02T17:46:16.416Z,5.43
2023-03-02T17:48:46.174Z,4.95
2023-03-02T17:51:15.268Z,4.85
2023-03-02T17:53:44.059Z,4.32
2023-03-02T17:56:12.884Z,5.20
2023-03-02T17:58:44.979Z,5.38
2023-03-02T18:01:15.835Z,5.30
2023-03-02T18:03:46.038Z,3.92
2023-03-02T18:06:14.917Z,8.00
2023-03-02T18:08:43.197Z,5.15
2023-03-02T18:11:11.868Z,5.28
2023-03-02T18:13:40.797Z,5.38
2023-03-02T18:16:09.360Z,4.97
2023-03-02T18:18:37.737Z,4.30
2023-03-02T18:21:07.840Z,4.40
2023-03-02T18:23:36.218Z,5.05
2023-03-02T18:26:04.919Z,5.18
2023-03-02T18:28:33.319Z,4.90
2023-03-02T18:31:01.836Z,4.88
2023-03-02T18:33:30.381Z,4.72
2023-03-02T18:36:00.582Z,4.72
2023-03-02T18:38:31.108Z,5.43
2023-03-02T18:41:00.849Z,4.03
2023-03-02T18:43:30.720Z,5.25
2023-03-02T18:45:59.206Z,4.82
2023-03-02T18:48:27.856Z,5.55
2023-03-02T18:50:56.352Z,4.63
2023-03-02T18:53:24.761Z,4.88
2023-03-02T18:55:56.070Z,4.85
2023-03-02T18:58:26.218Z,6.50
2023-03-02T19:00:55.588Z,4.57
2023-03-02T19:03:24.789Z,4.53
2023-03-02T19:05:57.584Z,4.78
2023-03-02T19:08:27.026Z,4.47
2023-03-02T19:10:57.328Z,4.80
2023-03-02T19:13:26.246Z,5.50
2023-03-02T19:15:55.470Z,5.05
2023-03-02T19:18:26.879Z,4.95
2023-03-02T19:20:55.795Z,4.82
2023-03-02T19:23:24.536Z,4.43
2023-03-02T19:25:53.597Z,4.57
2023-03-02T19:28:23.276Z,5.03
2023-03-02T19:30:52.199Z,4.78
2023-03-02T19:33:20.569Z,5.00
2023-03-02T19:35:48.970Z,5.18
2023-03-02T19:38:18.324Z,5.40
2023-03-02T19:40:46.793Z,4.70
2023-03-02T19:43:15.181Z,4.97
2023-03-02T19:45:44.984Z,4.68
2023-03-02T19:48:13.738Z,5.47
2023-03-02T19:50:42.119Z,5.28
2023-03-02T19:53:10.730Z,5.25
2023-03-02T19:55:39.628Z,5.80
2023-03-02T19:58:08.155Z,5.43
2023-03-02T20:00:38.352Z,5.00
2023-03-02T20:03:08.606Z,5.40
2023-03-02T20:05:37.761Z,5.82
2023-03-02T20:08:06.954Z,6.00
2023-03-02T20:10:39.940Z,6.55
2023-03-02T20:13:08.870Z,7.70
2023-03-02T20:15:40.266Z,5.60
2023-03-02T20:18:12.960Z,5.22
2023-03-02T20:20:41.600Z,5.72
2023-03-02T20:23:09.990Z,5.07
2023-03-02T20:25:40.011Z,6.00
2023-03-02T20:28:11.945Z,5.95
2023-03-02T20:30:45.623Z,5.93
2023-03-02T20:33:16.451Z,5.55
2023-03-02T20:35:47.338Z,6.60
2023-03-02T20:38:20.756Z,6.20
2023-03-02T20:40:49.356Z,7.03
2023-03-02T20:43:18.209Z,6.07
2023-03-02T20:45:47.039Z,5.85
2023-03-02T20:48:17.251Z,6.40
2023-03-02T20:50:45.681Z,6.40
2023-03-02T20:53:14.891Z,5.95
2023-03-02T20:55:43.521Z,6.68
2023-03-02T20:58:12.245Z,6.32
2023-03-02T21:00:41.829Z,6.72
2023-03-02T21:03:10.837Z,6.15
2023-03-02T21:05:42.226Z,6.35
2023-03-02T21:08:14.708Z,6.03
2023-03-02T21:10:45.418Z,5.78
2023-03-02T21:13:14.505Z,7.45
2023-03-02T21:15:43.110Z,7.25
2023-03-02T21:18:11.623Z,7.22
2023-03-02T21:20:41.631Z,6.85
2023-03-02T21:23:11.104Z,6.80
2023-03-02T21:25:42.145Z,7.03
2023-03-02T21:28:10.838Z,7.03
2023-03-02T21:30:39.167Z,6.82
2023-03-02T21:33:07.444Z,6.97
2023-03-02T21:35:36.787Z,7.43
2023-03-02T21:38:07.049Z,6.95
2023-03-02T21:40:40.639Z,5.65
2023-03-02T21:43:09.000Z,6.82
2023-03-02T21:45:38.223Z,6.57
2023-03-02T21:48:08.210Z,7.43
2023-03-02T21:50:39.181Z,7.32
2023-03-02T21:53:09.374Z,6.93
2023-03-02T21:55:38.002Z,7.50
2023-03-02T21:58:06.786Z,7.30
2023-03-02T22:00:38.572Z,7.60
2023-03-02T22:03:07.868Z,7.88
2023-03-02T22:05:36.728Z,7.38
2023-03-02T22:08:05.199Z,6.70
2023-03-02T22:10:41.148Z,7.57
2023-03-02T22:13:23.957Z,7.15
2023-03-02T22:15:59.426Z,7.47
2023-03-02T22:18:28.131Z,8.07
2023-03-02T22:20:56.409Z,7.32
2023-03-02T22:23:27.796Z,7.18
2023-03-02T22:26:14.145Z,7.88
2023-03-02T22:28:42.439Z,7.78
2023-03-02T22:31:20.972Z,7.78
2023-03-02T22:33:49.643Z,7.22
2023-03-02T22:36:22.388Z,7.30
2023-03-02T22:38:50.960Z,7.35
2023-03-02T22:41:21.603Z,8.05
2023-03-02T22:43:50.427Z,7.82
2023-03-02T22:46:21.877Z,8.60
2023-03-02T22:48:52.537Z,7.72
2023-03-02T22:51:24.163Z,6.90
2023-03-02T22:53:54.951Z,7.88
2023-03-02T22:56:38.426Z,7.80
2023-03-02T22:59:17.265Z,8.00
2023-03-02T23:01:46.954Z,7.57
2023-03-02T23:04:20.855Z,8.00
2023-03-02T23:06:51.753Z,8.05
2023-03-02T23:09:23.941Z,8.60
2023-03-02T23:11:56.999Z,8.68
2023-03-02T23:14:28.658Z,8.02
2023-03-02T23:17:01.178Z,8.88
2023-03-02T23:19:31.746Z,7.60
2023-03-02T23:22:00.256Z,7.65
2023-03-02T23:24:28.535Z,7.72
2023-03-02T23:26:58.472Z,8.13
2023-03-02T23:29:26.771Z,7.65
2023-03-02T23:31:55.178Z,9.50
2023-03-02T23:34:23.838Z,9.20
2023-03-02T23:36:52.178Z,8.18
2023-03-02T23:39:20.460Z,8.10
2023-03-02T23:41:49.138Z,8.60
2023-03-02T23:44:19.919Z,9.07
2023-03-02T23:46:48.773Z,8.65
2023-03-02T23:49:17.277Z,8.52
2023-03-02T23:51:45.666Z,9.30
2023-03-02T23:54:14.727Z,8.60
2023-03-02T23:56:43.030Z,10.15
2023-03-02T23:59:11.313Z,10.18
